createdAt,value
2017-12-19T00:01:04.694Z,3.20
2017-12-19T00:03:31.677Z,3.20
2017-12-19T00:05:57.884Z,3.10
2017-12-19T00:08:24.799Z,3.20
2017-12-19T00:10:51.061Z,3.20
2017-12-19T00:13:17.287Z,3.30
2017-12-19T00:15:43.536Z,3.30
2017-12-19T00:18:09.755Z,3.30
2017-12-19T00:20:36.030Z,3.30
2017-12-19T00:23:02.362Z,3.20
2017-12-19T00:25:28.595Z,3.20
2017-12-19T00:27:54.785Z,3.30
2017-12-19T00:30:21.009Z,3.30
2017-12-19T00:32:47.186Z,3.30
2017-12-19T00:35:13.425Z,3.30
2017-12-19T00:37:39.653Z,3.20
2017-12-19T00:40:05.802Z,3.20
2017-12-19T00:42:32.667Z,3.20
2017-12-19T00:44:58.843Z,3.20
2017-12-19T00:47:25.056Z,3.30
2017-12-19T00:49:51.218Z,3.60
2017-12-19T00:52:18.189Z,3.30
2017-12-19T00:54:44.421Z,3.30
2017-12-19T00:57:10.623Z,3.40
2017-12-19T00:59:37.591Z,3.30
2017-12-19T01:02:03.866Z,3.30
2017-12-19T01:04:30.045Z,3.20
2017-12-19T01:06:56.226Z,3.30
2017-12-19T01:09:22.449Z,3.40
2017-12-19T01:11:48.631Z,3.20
2017-12-19T01:14:14.910Z,3.30
2017-12-19T01:16:41.176Z,3.30
2017-12-19T01:19:07.380Z,3.30
2017-12-19T01:21:34.335Z,3.30
2017-12-19T01:24:01.247Z,3.20
2017-12-19T01:26:27.467Z,3.20
2017-12-19T01:28:53.704Z,3.20
2017-12-19T01:31:19.902Z,3.30
2017-12-19T01:33:46.075Z,3.30
2017-12-19T01:36:12.253Z,3.20
2017-12-19T01:38:38.435Z,3.20
2017-12-19T01:41:05.397Z,3.30
2017-12-19T01:43:31.648Z,3.30
2017-12-19T01:45:57.843Z,3.30
2017-12-19T01:48:25.084Z,3.30
2017-12-19T01:50:51.268Z,3.40
2017-12-19T01:53:17.424Z,3.30
2017-12-19T01:55:43.593Z,3.30
2017-12-19T01:58:09.768Z,3.30
2017-12-19T02:00:40.179Z,3.30
2017-12-19T02:03:06.658Z,3.20
2017-12-19T02:05:32.856Z,3.00
2017-12-19T02:07:59.066Z,3.20
2017-12-19T02:10:25.296Z,3.20
2017-12-19T02:12:51.563Z,3.30
2017-12-19T02:15:17.802Z,3.30
2017-12-19T02:17:44.803Z,3.30
2017-12-19T02:20:11.032Z,3.30
2017-12-19T02:22:37.300Z,3.30
2017-12-19T02:25:04.292Z,3.40
2017-12-19T02:27:30.568Z,3.40
2017-12-19T02:29:56.798Z,3.40
2017-12-19T02:32:23.024Z,3.40
2017-12-19T02:34:49.532Z,3.40
2017-12-19T02:37:15.688Z,3.40
2017-12-19T02:39:41.940Z,3.40
2017-12-19T02:42:08.973Z,3.50
2017-12-19T02:44:35.983Z,3.50
2017-12-19T02:47:02.153Z,3.50
2017-12-19T02:49:29.110Z,3.40
2017-12-19T02:51:55.365Z,3.30
2017-12-19T02:54:21.582Z,3.40
2017-12-19T02:56:47.798Z,3.50
2017-12-19T02:59:14.000Z,3.60
2017-12-19T03:01:40.219Z,3.50
2017-12-19T03:04:06.507Z,3.50
2017-12-19T03:06:32.761Z,3.50
2017-12-19T03:08:59.045Z,3.40
2017-12-19T03:11:25.316Z,3.50
2017-12-19T03:13:51.515Z,3.40
2017-12-19T03:16:17.711Z,3.40
2017-12-19T03:18:43.950Z,3.20
2017-12-19T03:21:10.135Z,3.30
2017-12-19T03:23:36.329Z,3.20
2017-12-19T03:26:02.524Z,3.20
2017-12-19T03:28:29.492Z,3.50
2017-12-19T03:30:55.709Z,3.60
2017-12-19T03:33:22.664Z,3.60
2017-12-19T03:35:48.894Z,3.60
2017-12-19T03:38:15.098Z,3.40
2017-12-19T03:40:42.118Z,3.40
2017-12-19T03:43:08.351Z,3.40
2017-12-19T03:45:34.606Z,3.30
2017-12-19T03:48:01.596Z,3.40
2017-12-19T03:50:27.858Z,3.40
2017-12-19T03:52:54.132Z,3.40
2017-12-19T03:55:20.617Z,3.60
2017-12-19T03:57:46.855Z,3.50
2017-12-19T04:00:13.841Z,3.40
2017-12-19T04:02:40.084Z,3.60
2017-12-19T04:05:06.345Z,3.30
2017-12-19T04:07:32.568Z,3.30
2017-12-19T04:09:58.859Z,3.30
2017-12-19T04:12:25.052Z,3.30
2017-12-19T04:14:51.225Z,3.30
2017-12-19T04:17:17.418Z,3.30
2017-12-19T04:19:44.355Z,3.50
2017-12-19T04:22:11.314Z,3.40
2017-12-19T04:24:37.499Z,3.40
2017-12-19T04:27:03.757Z,3.30
2017-12-19T04:29:30.736Z,3.30
2017-12-19T04:31:56.962Z,3.30
2017-12-19T04:34:23.168Z,3.30
2017-12-19T04:36:49.328Z,3.30
2017-12-19T04:39:15.583Z,3.30
2017-12-19T04:41:41.838Z,3.30
2017-12-19T04:44:08.746Z,3.30
2017-12-19T04:46:34.985Z,3.30
2017-12-19T04:49:01.214Z,3.30
2017-12-19T04:51:27.431Z,3.40
2017-12-19T04:53:53.631Z,3.30
2017-12-19T04:56:19.858Z,3.30
2017-12-19T04:58:46.091Z,3.30
2017-12-19T05:01:12.300Z,3.10
2017-12-19T05:03:39.228Z,3.10
2017-12-19T05:06:06.168Z,3.30
2017-12-19T05:08:33.120Z,3.40
2017-12-19T05:11:00.639Z,3.30
2017-12-19T05:13:26.888Z,3.30
2017-12-19T05:15:53.156Z,3.20
2017-12-19T05:18:19.395Z,3.20
2017-12-19T05:20:45.743Z,3.30
2017-12-19T05:23:12.023Z,3.30
2017-12-19T05:25:39.014Z,3.30
2017-12-19T05:28:05.307Z,3.30
2017-12-19T05:30:32.315Z,3.10
2017-12-19T05:32:58.583Z,3.10
2017-12-19T05:35:25.593Z,3.10
2017-12-19T05:37:51.839Z,3.10
2017-12-19T05:40:18.093Z,3.10
2017-12-19T05:42:44.377Z,3.00
2017-12-19T05:45:10.982Z,3.00
2017-12-19T05:47:37.406Z,2.90
2017-12-19T05:50:03.607Z,2.80
2017-12-19T05:52:31.017Z,2.80
2017-12-19T05:54:58.202Z,2.80
2017-12-19T05:57:24.470Z,2.90
2017-12-19T05:59:50.719Z,2.90
2017-12-19T06:02:22.489Z,2.90
2017-12-19T06:04:48.724Z,2.90
2017-12-19T06:07:19.605Z,2.90
2017-12-19T06:09:46.537Z,2.80
2017-12-19T06:12:15.185Z,2.90
2017-12-19T06:14:55.421Z,2.90
2017-12-19T06:17:42.855Z,3.00
2017-12-19T06:20:11.032Z,3.10
2017-12-19T06:22:38.044Z,3.10
2017-12-19T06:25:04.991Z,3.10
2017-12-19T06:27:31.558Z,3.10
2017-12-19T06:29:57.759Z,3.10
2017-12-19T06:32:24.008Z,3.20
2017-12-19T06:34:50.252Z,3.30
2017-12-19T06:37:16.482Z,3.20
2017-12-19T06:39:42.680Z,3.20
2017-12-19T06:42:08.918Z,3.20
2017-12-19T06:44:43.654Z,3.30
2017-12-19T06:47:12.830Z,3.30
2017-12-19T06:49:39.073Z,3.30
2017-12-19T06:52:05.270Z,3.20
2017-12-19T06:54:32.281Z,3.20
2017-12-19T06:56:58.571Z,3.20
2017-12-19T06:59:24.759Z,3.20
2017-12-19T07:01:51.033Z,3.20
2017-12-19T07:04:17.313Z,3.30
2017-12-19T07:06:43.523Z,3.30
2017-12-19T07:09:09.753Z,3.30
2017-12-19T07:11:35.916Z,3.30
2017-12-19T07:14:02.094Z,3.30
2017-12-19T07:16:28.321Z,3.50
2017-12-19T07:18:54.591Z,3.60
2017-12-19T07:21:21.553Z,3.60
2017-12-19T07:23:47.815Z,3.60
2017-12-19T07:26:14.056Z,3.50
2017-12-19T07:28:40.290Z,3.60
2017-12-19T07:31:06.528Z,3.30
2017-12-19T07:33:32.716Z,3.40
2017-12-19T07:35:58.910Z,3.60
2017-12-19T07:38:25.863Z,3.40
2017-12-19T07:40:52.853Z,3.30
2017-12-19T07:43:19.077Z,3.30
2017-12-19T07:45:45.716Z,3.30
2017-12-19T07:48:11.889Z,3.40
2017-12-19T07:50:38.108Z,3.50
2017-12-19T07:53:04.389Z,3.50
2017-12-19T07:55:30.628Z,3.60
2017-12-19T07:57:56.857Z,3.70
2017-12-19T08:00:23.122Z,3.70
2017-12-19T08:02:49.300Z,3.80
2017-12-19T08:05:15.593Z,3.70
2017-12-19T08:07:42.524Z,3.70
2017-12-19T08:10:08.724Z,3.90
2017-12-19T08:12:34.957Z,3.90
2017-12-19T08:15:01.132Z,3.70
2017-12-19T08:17:28.098Z,3.80
2017-12-19T08:19:54.324Z,3.80
2017-12-19T08:22:20.509Z,4.00
2017-12-19T08:24:46.728Z,4.00
2017-12-19T08:27:12.871Z,4.10
2017-12-19T08:29:39.363Z,4.10
2017-12-19T08:32:05.513Z,4.10
2017-12-19T08:34:31.676Z,4.30
2017-12-19T08:36:58.551Z,4.30
2017-12-19T08:39:24.676Z,4.20
2017-12-19T08:41:50.862Z,4.30
2017-12-19T08:44:17.114Z,4.30
2017-12-19T08:46:43.335Z,4.30
2017-12-19T08:49:09.554Z,4.30
2017-12-19T08:51:36.452Z,4.10
2017-12-19T08:54:02.595Z,4.10
2017-12-19T08:56:28.783Z,4.10
2017-12-19T08:58:55.031Z,4.20
2017-12-19T09:01:21.226Z,4.20
2017-12-19T09:03:47.401Z,4.20
2017-12-19T09:06:14.114Z,4.20
2017-12-19T09:08:40.315Z,4.30
2017-12-19T09:11:06.461Z,4.30
2017-12-19T09:13:32.697Z,4.20
2017-12-19T09:15:58.885Z,4.20
2017-12-19T09:18:25.776Z,4.30
2017-12-19T09:20:52.006Z,4.30
2017-12-19T09:23:18.219Z,4.40
2017-12-19T09:25:44.798Z,4.40
2017-12-19T09:28:10.992Z,4.50
2017-12-19T09:30:37.135Z,4.50
2017-12-19T09:33:10.276Z,4.60
2017-12-19T09:35:36.743Z,4.40
2017-12-19T09:38:02.937Z,4.20
2017-12-19T09:40:29.851Z,4.30
2017-12-19T09:42:56.113Z,4.30
2017-12-19T09:45:22.313Z,4.10
2017-12-19T09:47:48.587Z,4.20
2017-12-19T09:50:14.763Z,4.30
2017-12-19T09:52:40.896Z,4.40
2017-12-19T09:55:07.063Z,4.40
2017-12-19T09:57:33.359Z,4.50
2017-12-19T09:59:59.537Z,4.60
2017-12-19T10:02:25.694Z,4.50
2017-12-19T10:04:52.187Z,4.50
2017-12-19T10:07:18.375Z,4.40
2017-12-19T10:09:44.573Z,4.60
2017-12-19T10:12:10.825Z,4.50
2017-12-19T10:14:37.035Z,4.60
2017-12-19T10:17:03.216Z,4.50
2017-12-19T10:19:29.417Z,4.70
2017-12-19T10:21:56.434Z,5.00
2017-12-19T10:24:22.720Z,5.00
2017-12-19T10:26:48.944Z,5.20
2017-12-19T10:29:15.100Z,5.50
2017-12-19T10:31:41.275Z,5.70
2017-12-19T10:34:08.236Z,7.70
2017-12-19T10:36:35.180Z,8.80
2017-12-19T10:39:01.406Z,8.80
2017-12-19T10:41:28.426Z,10.00
2017-12-19T10:43:54.669Z,9.90
2017-12-19T10:46:21.576Z,10.60
2017-12-19T10:48:47.755Z,10.60
2017-12-19T10:51:14.707Z,10.70
2017-12-19T10:53:40.832Z,10.70
2017-12-19T10:56:07.741Z,11.40
2017-12-19T10:58:33.943Z,11.40
2017-12-19T11:01:07.110Z,12.00
2017-12-19T11:03:33.330Z,12.50
2017-12-19T11:05:59.562Z,12.40
2017-12-19T11:08:25.768Z,11.80
2017-12-19T11:10:52.668Z,11.30
2017-12-19T11:13:18.855Z,11.20
2017-12-19T11:15:45.005Z,11.40
2017-12-19T11:18:11.177Z,12.20
2017-12-19T11:20:37.400Z,12.80
2017-12-19T11:23:03.591Z,12.00
2017-12-19T11:25:29.829Z,10.90
2017-12-19T11:27:56.094Z,9.80
2017-12-19T11:30:23.124Z,9.00
2017-12-19T11:32:49.328Z,9.00
2017-12-19T11:35:15.592Z,10.10
2017-12-19T11:37:42.151Z,11.10
2017-12-19T11:40:09.069Z,13.60
2017-12-19T11:42:35.288Z,13.50
2017-12-19T11:45:01.483Z,13.10
2017-12-19T11:47:27.700Z,13.60
2017-12-19T11:49:53.920Z,14.10
2017-12-19T11:52:20.117Z,14.50
2017-12-19T11:54:46.272Z,14.00
2017-12-19T11:57:12.470Z,14.30
2017-12-19T11:59:38.741Z,15.80
2017-12-19T12:02:04.971Z,16.10
2017-12-19T12:04:31.188Z,15.30
2017-12-19T12:06:57.429Z,15.40
2017-12-19T12:09:23.662Z,14.90
2017-12-19T12:11:49.828Z,15.00
2017-12-19T12:14:16.256Z,15.80
2017-12-19T12:16:42.418Z,16.80
2017-12-19T12:19:09.278Z,16.30
2017-12-19T12:21:35.469Z,16.30
2017-12-19T12:24:01.698Z,16.00
2017-12-19T12:26:28.728Z,10.70
2017-12-19T12:28:54.941Z,10.60
2017-12-19T12:31:21.202Z,10.40
2017-12-19T12:33:48.187Z,9.30
2017-12-19T12:36:14.453Z,9.30
2017-12-19T12:38:40.687Z,8.40
2017-12-19T12:41:06.878Z,8.00
2017-12-19T12:43:33.075Z,7.50
2017-12-19T12:46:00.048Z,7.90
2017-12-19T12:48:26.240Z,7.90
2017-12-19T12:50:53.166Z,7.80
2017-12-19T12:53:19.328Z,7.80
2017-12-19T12:55:46.320Z,7.90
2017-12-19T12:58:12.622Z,7.90
2017-12-19T13:00:38.890Z,8.00
2017-12-19T13:03:05.236Z,8.00
2017-12-19T13:05:31.481Z,8.00
2017-12-19T13:07:58.532Z,8.10
2017-12-19T13:10:25.424Z,8.00
2017-12-19T13:12:51.696Z,8.20
2017-12-19T13:15:18.664Z,7.60
2017-12-19T13:17:44.871Z,7.60
2017-12-19T13:20:11.763Z,7.10
2017-12-19T13:22:37.956Z,7.10
2017-12-19T13:25:04.893Z,7.30
2017-12-19T13:27:31.830Z,7.30
2017-12-19T13:29:58.742Z,7.40
2017-12-19T13:32:24.932Z,7.40
2017-12-19T13:34:51.158Z,7.40
2017-12-19T13:37:18.037Z,7.10
2017-12-19T13:39:44.213Z,7.00
2017-12-19T13:42:11.185Z,7.20
2017-12-19T13:44:37.325Z,7.20
2017-12-19T13:47:03.564Z,7.20
2017-12-19T13:49:29.745Z,7.20
2017-12-19T13:51:56.640Z,7.10
2017-12-19T13:54:22.820Z,7.10
2017-12-19T13:56:49.004Z,7.30
2017-12-19T13:59:15.268Z,7.20
2017-12-19T14:01:42.194Z,6.90
2017-12-19T14:04:08.399Z,6.90
2017-12-19T14:06:34.644Z,7.00
2017-12-19T14:09:00.868Z,7.00
2017-12-19T14:11:27.007Z,7.00
2017-12-19T14:13:53.175Z,7.00
2017-12-19T14:16:19.357Z,6.80
2017-12-19T14:18:52.440Z,6.90
2017-12-19T14:21:18.580Z,6.90
2017-12-19T14:23:44.799Z,7.00
2017-12-19T14:26:10.992Z,7.00
2017-12-19T14:28:37.986Z,6.90
2017-12-19T14:31:04.903Z,6.70
2017-12-19T14:33:31.075Z,6.70
2017-12-19T14:35:58.059Z,6.40
2017-12-19T14:38:24.251Z,6.40
2017-12-19T14:40:50.490Z,6.50
2017-12-19T14:43:16.645Z,6.40
2017-12-19T14:45:43.087Z,6.20
2017-12-19T14:48:09.361Z,6.20
2017-12-19T14:50:35.523Z,6.10
2017-12-19T14:53:01.714Z,6.10
2017-12-19T14:55:28.314Z,6.30
2017-12-19T14:57:54.818Z,6.20
2017-12-19T15:00:20.984Z,6.30
2017-12-19T15:02:47.194Z,6.30
2017-12-19T15:05:13.376Z,6.40
2017-12-19T15:07:40.304Z,6.40
2017-12-19T15:10:07.248Z,6.40
2017-12-19T15:12:34.195Z,6.30
2017-12-19T15:15:01.098Z,6.20
2017-12-19T15:17:27.284Z,6.20
2017-12-19T15:19:53.447Z,6.10
2017-12-19T15:22:19.650Z,6.20
2017-12-19T15:24:45.829Z,6.20
2017-12-19T15:27:12.000Z,6.10
2017-12-19T15:29:38.176Z,6.20
2017-12-19T15:32:04.382Z,5.90
2017-12-19T15:34:30.549Z,5.50
2017-12-19T15:36:56.695Z,5.50
2017-12-19T15:39:23.698Z,5.80
2017-12-19T15:41:49.853Z,5.70
2017-12-19T15:44:16.795Z,6.00
2017-12-19T15:46:43.056Z,5.90
2017-12-19T15:49:09.251Z,6.00
2017-12-19T15:51:36.199Z,6.10
2017-12-19T15:54:03.146Z,6.10
2017-12-19T15:56:30.082Z,6.20
2017-12-19T15:58:56.235Z,6.10
2017-12-19T16:01:22.398Z,6.10
2017-12-19T16:03:48.579Z,5.90
2017-12-19T16:06:14.747Z,5.90
2017-12-19T16:08:40.989Z,5.80
2017-12-19T16:11:07.209Z,5.80
2017-12-19T16:13:33.410Z,5.80
2017-12-19T16:16:06.569Z,6.00
2017-12-19T16:18:33.514Z,6.00
2017-12-19T16:21:00.470Z,6.10
2017-12-19T16:23:27.397Z,6.00
2017-12-19T16:25:53.536Z,6.00
2017-12-19T16:28:20.464Z,5.90
2017-12-19T16:30:46.613Z,5.90
2017-12-19T16:33:13.544Z,5.70
2017-12-19T16:35:40.454Z,5.80
2017-12-19T16:38:06.719Z,5.80
2017-12-19T16:40:33.627Z,5.80
2017-12-19T16:42:59.837Z,5.80
2017-12-19T16:45:26.083Z,5.70
2017-12-19T16:47:52.287Z,5.80
2017-12-19T16:50:18.516Z,5.80
2017-12-19T16:52:45.616Z,5.70
2017-12-19T16:55:11.836Z,5.70
2017-12-19T16:57:38.034Z,5.70
2017-12-19T17:00:04.270Z,5.50
2017-12-19T17:02:30.460Z,5.20
2017-12-19T17:04:57.320Z,5.30
2017-12-19T17:07:23.540Z,5.30
2017-12-19T17:09:49.776Z,5.20
2017-12-19T17:12:15.996Z,5.30
2017-12-19T17:14:42.218Z,5.40
2017-12-19T17:17:08.381Z,5.30
2017-12-19T17:19:34.613Z,5.20
2017-12-19T17:22:00.834Z,5.30
2017-12-19T17:24:27.075Z,5.20
2017-12-19T17:26:53.243Z,5.20
2017-12-19T17:29:20.185Z,4.60
2017-12-19T17:31:47.113Z,4.70
2017-12-19T17:34:13.289Z,4.70
2017-12-19T17:36:39.522Z,4.70
2017-12-19T17:39:05.748Z,4.80
2017-12-19T17:41:31.920Z,4.80
2017-12-19T17:43:58.136Z,4.60
2017-12-19T17:46:24.359Z,4.40
2017-12-19T17:48:50.582Z,4.20
2017-12-19T17:51:16.848Z,4.10
2017-12-19T17:53:43.016Z,4.00
2017-12-19T17:56:09.210Z,4.00
2017-12-19T17:58:36.140Z,4.10
2017-12-19T18:01:02.263Z,4.00
2017-12-19T18:03:28.423Z,4.30
2017-12-19T18:05:54.717Z,4.40
2017-12-19T18:08:21.685Z,4.20
2017-12-19T18:10:48.590Z,4.20
2017-12-19T18:13:14.795Z,4.20
2017-12-19T18:15:41.023Z,4.20
2017-12-19T18:18:07.243Z,4.30
2017-12-19T18:20:33.443Z,4.30
2017-12-19T18:23:00.377Z,4.20
2017-12-19T18:25:26.591Z,4.20
2017-12-19T18:27:52.815Z,4.30
2017-12-19T18:30:19.043Z,4.20
2017-12-19T18:32:45.296Z,4.30
2017-12-19T18:35:12.257Z,4.20
2017-12-19T18:37:38.574Z,4.20
2017-12-19T18:40:05.529Z,4.30
2017-12-19T18:42:31.735Z,4.30
2017-12-19T18:44:58.000Z,4.20
2017-12-19T18:47:24.140Z,4.10
2017-12-19T18:49:50.338Z,4.20
2017-12-19T18:52:17.271Z,4.10
2017-12-19T18:54:44.216Z,4.10
2017-12-19T18:57:11.214Z,4.10
2017-12-19T18:59:37.531Z,4.10
2017-12-19T19:02:03.761Z,4.10
2017-12-19T19:04:30.015Z,4.30
2017-12-19T19:06:56.183Z,4.30
2017-12-19T19:09:23.149Z,4.40
2017-12-19T19:11:49.363Z,4.40
2017-12-19T19:14:16.294Z,4.00
2017-12-19T19:16:43.224Z,4.10
2017-12-19T19:19:10.279Z,4.10
2017-12-19T19:21:36.479Z,4.20
2017-12-19T19:24:02.712Z,4.20
2017-12-19T19:26:28.951Z,3.90
2017-12-19T19:28:55.171Z,4.00
2017-12-19T19:31:21.404Z,4.00
2017-12-19T19:33:47.892Z,4.20
2017-12-19T19:36:14.326Z,4.20
2017-12-19T19:38:40.904Z,4.30
2017-12-19T19:41:07.204Z,4.40
2017-12-19T19:43:33.530Z,4.30
2017-12-19T19:45:59.718Z,4.20
2017-12-19T19:48:25.988Z,4.20
2017-12-19T19:50:52.176Z,4.30
2017-12-19T19:53:19.155Z,4.20
2017-12-19T19:55:45.339Z,4.20
2017-12-19T19:58:11.488Z,4.20
2017-12-19T20:00:38.419Z,4.00
2017-12-19T20:03:05.336Z,4.10
2017-12-19T20:05:31.562Z,4.10
2017-12-19T20:07:57.777Z,4.20
2017-12-19T20:10:24.031Z,4.40
2017-12-19T20:12:50.228Z,4.30
2017-12-19T20:15:16.433Z,4.40
2017-12-19T20:17:42.719Z,4.40
2017-12-19T20:20:08.933Z,4.50
2017-12-19T20:22:35.124Z,4.40
2017-12-19T20:25:01.286Z,4.30
2017-12-19T20:27:27.456Z,4.20
2017-12-19T20:29:54.378Z,4.30
2017-12-19T20:32:21.275Z,4.30
2017-12-19T20:34:47.455Z,4.50
2017-12-19T20:37:14.391Z,4.60
2017-12-19T20:39:40.659Z,4.60
2017-12-19T20:42:06.780Z,4.60
2017-12-19T20:44:33.768Z,4.80
2017-12-19T20:46:59.999Z,4.80
2017-12-19T20:49:26.226Z,4.90
2017-12-19T20:51:52.485Z,5.00
2017-12-19T20:54:18.714Z,5.10
2017-12-19T20:56:44.915Z,5.10
2017-12-19T20:59:11.110Z,5.00
2017-12-19T21:01:37.355Z,5.10
2017-12-19T21:04:03.526Z,5.10
2017-12-19T21:06:29.727Z,4.90
2017-12-19T21:08:55.995Z,5.00
2017-12-19T21:11:22.934Z,5.10
2017-12-19T21:13:49.907Z,5.10
2017-12-19T21:16:16.103Z,5.10
2017-12-19T21:18:42.314Z,4.80
2017-12-19T21:21:08.499Z,5.00
2017-12-19T21:23:34.720Z,5.00
2017-12-19T21:26:00.890Z,5.00
2017-12-19T21:28:27.047Z,5.00
2017-12-19T21:30:54.002Z,5.10
2017-12-19T21:33:20.919Z,5.20
2017-12-19T21:35:47.160Z,5.20
2017-12-19T21:38:14.185Z,5.30
2017-12-19T21:40:41.169Z,5.30
2017-12-19T21:43:09.220Z,5.30
2017-12-19T21:45:35.429Z,5.30
2017-12-19T21:48:04.245Z,5.10
2017-12-19T21:50:31.143Z,5.30
2017-12-19T21:52:57.296Z,5.30
2017-12-19T21:55:23.453Z,5.40
2017-12-19T21:57:49.726Z,5.50
2017-12-19T22:00:15.934Z,5.50
2017-12-19T22:02:42.128Z,5.50
2017-12-19T22:05:09.128Z,5.50
2017-12-19T22:07:35.364Z,5.40
2017-12-19T22:10:01.597Z,5.50
2017-12-19T22:12:27.810Z,5.50
2017-12-19T22:14:54.045Z,5.40
2017-12-19T22:17:20.241Z,5.50
2017-12-19T22:19:46.438Z,5.60
2017-12-19T22:22:13.383Z,5.50
2017-12-19T22:24:39.553Z,5.50
2017-12-19T22:27:05.772Z,5.50
2017-12-19T22:29:31.957Z,5.50
2017-12-19T22:31:58.155Z,5.50
2017-12-19T22:34:24.307Z,5.60
2017-12-19T22:36:50.467Z,5.50
2017-12-19T22:39:17.364Z,5.50
2017-12-19T22:41:43.562Z,5.50
2017-12-19T22:44:09.724Z,5.40
2017-12-19T22:46:35.903Z,5.50
2017-12-19T22:49:02.080Z,5.50
2017-12-19T22:51:28.237Z,5.60
2017-12-19T22:53:55.132Z,5.70
2017-12-19T22:56:21.310Z,5.70
2017-12-19T22:58:48.279Z,5.60
2017-12-19T23:01:14.435Z,5.60
2017-12-19T23:03:40.622Z,5.60
2017-12-19T23:06:06.864Z,5.60
2017-12-19T23:08:33.087Z,5.60
2017-12-19T23:10:59.275Z,5.60
2017-12-19T23:13:25.514Z,5.70
2017-12-19T23:15:52.435Z,5.70
2017-12-19T23:18:18.629Z,5.70
2017-12-19T23:20:44.805Z,5.70
2017-12-19T23:23:11.024Z,5.70
2017-12-19T23:25:37.193Z,5.80
2017-12-19T23:28:03.374Z,5.80
2017-12-19T23:30:29.562Z,5.70
2017-12-19T23:32:55.744Z,5.70
2017-12-19T23:35:21.967Z,5.70
2017-12-19T23:37:48.887Z,5.60
2017-12-19T23:40:15.123Z,5.60
2017-12-19T23:42:41.356Z,5.60
2017-12-19T23:45:07.582Z,5.60
2017-12-19T23:47:33.790Z,5.60
2017-12-19T23:49:59.963Z,5.60
2017-12-19T23:52:26.881Z,5.60
2017-12-19T23:54:53.067Z,5.60
2017-12-19T23:57:19.280Z,5.60
2017-12-19T23:59:45.481Z,5.50
